Time;durP1;ratioP1;P1;durP2;ratioP2;P2;SDS_P1;SDS_P2;PMS_P1;PMS_P2;Temp;Humidity;BMP_temperature;BMP_pressure;BME280_temperature;BME280_humidity;BME280_pressure;Samples;Min_cycle;Max_cycle;Signal;HPM_P1;HPM_P2
2024/02/15 00:00:12;;;;;;;7.53;3.00;;;10.50;99.90;;;;;;5022451;28;20076;-91
2024/02/15 00:02:38;;;;;;;5.38;3.30;;;10.50;99.90;;;;;;5025731;28;20022;-91
2024/02/15 00:05:04;;;;;;;6.55;3.10;;;10.50;99.90;;;;;;5023666;28;20492;-91
2024/02/15 00:07:30;;;;;;;3.88;2.92;;;10.40;99.90;;;;;;5019741;28;20076;-91
2024/02/15 00:09:55;;;;;;;7.38;3.42;;;10.30;99.90;;;;;;5026285;28;20033;-91
2024/02/15 00:12:21;;;;;;;4.97;2.95;;;10.40;99.90;;;;;;5023353;28;20018;-91
2024/02/15 00:14:47;;;;;;;4.40;3.30;;;10.40;99.90;;;;;;5025393;28;20025;-90
2024/02/15 00:17:13;;;;;;;4.63;2.88;;;10.40;99.90;;;;;;5017914;28;20105;-91
2024/02/15 00:19:41;;;;;;;5.35;3.10;;;10.40;99.90;;;;;;5017294;28;20034;-92
2024/02/15 00:22:07;;;;;;;6.63;3.05;;;10.30;99.90;;;;;;5025779;28;20018;-91
2024/02/15 00:24:32;;;;;;;5.63;3.70;;;10.40;99.90;;;;;;5026072;28;20033;-90
2024/02/15 00:26:58;;;;;;;5.78;2.83;;;10.40;99.90;;;;;;5031869;28;20042;-90
2024/02/15 00:29:26;;;;;;;7.80;3.47;;;10.30;99.90;;;;;;5002442;28;20396;-91
2024/02/15 00:31:51;;;;;;;7.50;2.97;;;10.30;99.90;;;;;;4998498;28;20030;-93
2024/02/15 00:34:17;;;;;;;6.75;3.35;;;10.20;99.90;;;;;;5025791;28;20025;-89
2024/02/15 00:36:46;;;;;;;4.68;2.97;;;10.20;99.90;;;;;;5017728;28;20049;-90
2024/02/15 00:39:13;;;;;;;5.70;3.15;;;10.10;99.90;;;;;;5025425;28;20065;-91
2024/02/15 00:41:42;;;;;;;8.50;4.13;;;10.10;99.90;;;;;;5027173;28;20107;-90
2024/02/15 00:44:11;;;;;;;7.72;3.72;;;10.10;99.90;;;;;;5022367;28;20066;-91
2024/02/15 00:46:38;;;;;;;4.78;2.20;;;10.00;99.90;;;;;;5018179;28;20708;-91
2024/02/15 00:49:06;;;;;;;7.38;2.75;;;10.00;99.90;;;;;;5025204;28;20034;-90
2024/02/15 00:51:33;;;;;;;6.13;3.40;;;10.00;99.90;;;;;;5016079;28;20046;-91
2024/02/15 00:54:00;;;;;;;6.70;3.90;;;10.00;99.90;;;;;;5024793;28;20539;-89
2024/02/15 00:56:26;;;;;;;4.55;3.10;;;10.00;99.90;;;;;;5025761;28;20028;-90
2024/02/15 00:58:51;;;;;;;5.57;3.35;;;9.90;99.90;;;;;;5025208;28;20022;-89
2024/02/15 01:01:17;;;;;;;5.75;3.55;;;9.90;99.90;;;;;;5016782;28;20026;-91
2024/02/15 01:03:43;;;;;;;5.78;3.20;;;9.90;99.90;;;;;;5007437;28;20044;-90
2024/02/15 01:06:08;;;;;;;4.20;2.90;;;9.90;99.90;;;;;;5017660;28;20026;-91
2024/02/15 01:08:34;;;;;;;5.78;3.30;;;9.90;99.90;;;;;;5026636;28;20030;-90
2024/02/15 01:11:00;;;;;;;10.27;4.57;;;9.90;99.90;;;;;;4992830;28;20026;-91
2024/02/15 01:13:25;;;;;;;7.28;4.25;;;9.80;99.90;;;;;;5016418;28;20052;-90
2024/02/15 01:15:51;;;;;;;5.93;3.50;;;9.80;99.90;;;;;;5018017;28;20055;-92
2024/02/15 01:18:16;;;;;;;5.72;3.78;;;9.80;99.90;;;;;;5016435;28;20056;-91
2024/02/15 01:20:42;;;;;;;7.05;3.45;;;9.70;99.90;;;;;;5017529;28;20519;-91
2024/02/15 01:23:08;;;;;;;6.85;3.78;;;9.70;99.90;;;;;;5018095;28;20086;-90
2024/02/15 01:25:34;;;;;;;5.40;3.20;;;9.80;99.90;;;;;;5018306;28;20022;-90
2024/02/15 01:28:02;;;;;;;3.85;2.97;;;9.70;99.90;;;;;;5001229;28;20068;-90
2024/02/15 01:30:28;;;;;;;4.72;3.40;;;9.80;99.90;;;;;;5000052;28;20022;-91
2024/02/15 01:32:54;;;;;;;7.18;3.45;;;9.80;99.90;;;;;;5004469;28;20372;-91
2024/02/15 01:35:20;;;;;;;6.07;3.28;;;9.80;99.90;;;;;;5020512;28;20092;-91
2024/02/15 01:37:46;;;;;;;6.20;3.20;;;9.80;99.90;;;;;;5002074;28;20025;-91
2024/02/15 01:40:12;;;;;;;6.15;3.20;;;9.70;99.90;;;;;;5028450;28;20420;-90
2024/02/15 01:42:39;;;;;;;8.63;3.97;;;9.80;99.90;;;;;;5019687;28;20014;-90
2024/02/15 01:45:05;;;;;;;7.75;3.47;;;9.80;99.90;;;;;;5022352;28;20028;-93
2024/02/15 01:47:31;;;;;;;10.05;4.47;;;9.80;99.90;;;;;;5016330;28;20034;-91
2024/02/15 01:49:57;;;;;;;7.45;4.35;;;9.80;99.90;;;;;;5006844;28;20033;-91
2024/02/15 01:52:23;;;;;;;6.53;4.00;;;9.90;99.90;;;;;;5016007;28;20026;-91
2024/02/15 01:54:52;;;;;;;6.30;4.13;;;9.80;99.90;;;;;;5017412;28;20061;-90
2024/02/15 01:57:20;;;;;;;5.28;3.90;;;9.90;99.90;;;;;;5032657;28;20036;-91
2024/02/15 01:59:46;;;;;;;6.90;4.43;;;9.90;99.90;;;;;;5008531;28;20051;-91
2024/02/15 02:02:14;;;;;;;8.30;3.67;;;10.00;99.90;;;;;;5023536;28;20736;-91
2024/02/15 02:04:41;;;;;;;7.18;4.43;;;9.90;99.90;;;;;;5015602;28;20571;-90
2024/02/15 02:07:07;;;;;;;7.97;4.45;;;9.90;99.90;;;;;;5016065;28;20512;-91
2024/02/15 02:09:33;;;;;;;6.18;4.30;;;10.00;99.90;;;;;;5024533;28;20081;-91
2024/02/15 02:12:00;;;;;;;9.35;4.28;;;10.00;99.90;;;;;;5027256;28;20025;-91
2024/02/15 02:14:25;;;;;;;7.50;4.05;;;10.00;99.90;;;;;;5031477;28;20025;-91
2024/02/15 02:16:51;;;;;;;9.13;4.13;;;10.00;99.90;;;;;;5024393;28;20030;-89
2024/02/15 02:19:17;;;;;;;7.90;5.72;;;10.00;99.90;;;;;;4998245;28;20026;-90
2024/02/15 02:21:44;;;;;;;5.57;3.83;;;10.00;99.90;;;;;;5023400;28;20530;-91
2024/02/15 02:24:18;;;;;;;6.95;4.85;;;10.10;99.90;;;;;;5015252;28;20503;-90
2024/02/15 02:26:44;;;;;;;6.40;4.93;;;10.00;99.90;;;;;;5015873;28;20116;-92
2024/02/15 02:29:10;;;;;;;9.20;4.57;;;10.00;99.90;;;;;;4997589;28;20068;-90
2024/02/15 02:31:36;;;;;;;5.93;3.88;;;10.00;99.90;;;;;;5023044;28;20034;-90
2024/02/15 02:34:03;;;;;;;9.38;4.15;;;10.00;99.90;;;;;;5023526;28;20022;-91
2024/02/15 02:36:29;;;;;;;6.57;4.35;;;10.00;99.90;;;;;;5023977;28;20017;-91
2024/02/15 02:39:00;;;;;;;7.32;4.20;;;10.00;99.90;;;;;;5015073;28;20042;-89
2024/02/15 02:41:28;;;;;;;6.30;3.92;;;10.00;99.90;;;;;;5016858;28;20006;-89
2024/02/15 02:43:55;;;;;;;5.70;3.55;;;10.00;99.90;;;;;;5020552;28;20022;-91
2024/02/15 02:46:21;;;;;;;8.18;4.63;;;10.00;99.90;;;;;;5022335;28;20459;-91
2024/02/15 02:48:46;;;;;;;6.55;3.90;;;10.00;99.90;;;;;;5014873;28;20034;-90
2024/02/15 02:51:12;;;;;;;6.57;4.18;;;10.00;99.90;;;;;;5019278;28;20029;-90
2024/02/15 02:53:37;;;;;;;6.10;4.32;;;9.90;99.90;;;;;;5031117;28;20030;-91
2024/02/15 02:56:03;;;;;;;10.15;4.80;;;9.90;99.90;;;;;;5020593;28;20045;-92
2024/02/15 02:58:29;;;;;;;6.32;4.75;;;10.00;99.90;;;;;;5018146;28;20037;-90
2024/02/15 03:00:55;;;;;;;6.80;5.82;;;10.00;99.90;;;;;;5021300;28;20496;-89
2024/02/15 03:03:22;;;;;;;8.02;4.57;;;10.00;99.90;;;;;;5005080;28;20025;-91
2024/02/15 03:05:48;;;;;;;8.63;4.78;;;10.00;99.90;;;;;;5024874;28;20090;-91
2024/02/15 03:08:15;;;;;;;5.07;4.35;;;10.00;99.90;;;;;;5001299;28;20121;-90
2024/02/15 03:10:40;;;;;;;6.32;4.47;;;10.00;99.90;;;;;;5005079;28;20112;-92
2024/02/15 03:13:09;;;;;;;7.68;5.25;;;9.90;99.90;;;;;;5026424;28;20094;-90
2024/02/15 03:15:35;;;;;;;10.02;4.75;;;10.00;99.90;;;;;;5014405;28;20106;-90
2024/02/15 03:18:06;;;;;;;6.32;4.60;;;10.00;99.90;;;;;;5019924;28;20041;-91
2024/02/15 03:20:37;;;;;;;8.40;4.68;;;10.00;99.90;;;;;;5016879;28;20041;-90
2024/02/15 03:23:03;;;;;;;10.85;4.53;;;10.00;99.90;;;;;;5021280;28;20056;-92
2024/02/15 03:25:29;;;;;;;8.30;4.88;;;10.00;99.90;;;;;;5016521;28;20034;-92
2024/02/15 03:28:03;;;;;;;9.80;5.00;;;10.00;99.90;;;;;;5020107;28;20057;-92
2024/02/15 03:30:31;;;;;;;10.05;4.35;;;10.00;99.90;;;;;;5023627;28;20032;-91
2024/02/15 03:32:57;;;;;;;9.18;4.32;;;10.00;99.90;;;;;;4996812;28;20080;-90
2024/02/15 03:35:25;;;;;;;7.13;4.30;;;10.00;99.90;;;;;;5004850;28;20090;-91
2024/02/15 03:37:51;;;;;;;;;;;9.90;99.90;;;;;;5023675;28;20030;-91
2024/02/15 03:40:17;;;;;;;9.50;3.95;;;9.90;99.90;;;;;;5014928;28;19940;-90
2024/02/15 03:42:43;;;;;;;7.53;4.05;;;9.90;99.90;;;;;;5015042;28;20914;-91
2024/02/15 03:45:10;;;;;;;6.38;4.18;;;10.00;99.90;;;;;;5017701;28;20041;-90
2024/02/15 03:47:36;;;;;;;6.90;4.00;;;9.90;99.90;;;;;;5018484;28;20034;-92
2024/02/15 03:50:09;;;;;;;7.28;4.38;;;9.90;99.90;;;;;;5026492;28;20021;-90
2024/02/15 03:52:35;;;;;;;6.60;4.05;;;9.90;99.90;;;;;;5015890;28;20145;-89
2024/02/15 03:55:01;;;;;;;6.05;3.60;;;9.90;99.90;;;;;;5015090;28;20537;-90
2024/02/15 03:57:28;;;;;;;8.10;3.95;;;9.90;99.90;;;;;;5006735;28;20026;-90
2024/02/15 03:59:54;;;;;;;6.70;3.78;;;9.90;99.90;;;;;;5024428;28;20029;-90
2024/02/15 04:02:20;;;;;;;7.63;4.13;;;9.90;99.90;;;;;;5019773;28;20029;-91
2024/02/15 04:04:49;;;;;;;8.27;3.95;;;9.80;99.90;;;;;;5000532;28;20030;-91
2024/02/15 04:07:19;;;;;;;7.03;3.90;;;9.90;99.90;;;;;;5028080;28;20340;-90
2024/02/15 04:09:45;;;;;;;5.38;3.95;;;9.80;99.90;;;;;;5016408;28;20036;-92
2024/02/15 04:12:11;;;;;;;7.30;4.03;;;9.90;99.90;;;;;;5020495;28;20030;-92
2024/02/15 04:14:38;;;;;;;7.95;4.18;;;9.90;99.90;;;;;;5019365;28;20050;-90
2024/02/15 04:17:04;;;;;;;9.15;3.70;;;9.80;99.90;;;;;;5028815;28;20025;-91
2024/02/15 04:19:33;;;;;;;8.50;4.78;;;9.90;99.90;;;;;;5006176;28;20080;-90
2024/02/15 04:22:07;;;;;;;5.03;3.20;;;9.90;99.90;;;;;;5011260;28;20049;-94
2024/02/15 04:24:34;;;;;;;4.88;3.53;;;9.90;99.90;;;;;;5037922;28;20021;-94
2024/02/15 04:27:00;;;;;;;6.93;4.75;;;9.90;99.90;;;;;;5021357;28;20026;-92
2024/02/15 04:29:26;;;;;;;7.18;4.00;;;9.80;99.90;;;;;;5029782;28;20094;-93
2024/02/15 04:31:54;;;;;;;7.05;4.75;;;9.80;99.90;;;;;;5042782;28;20029;-90
2024/02/15 04:34:20;;;;;;;9.07;5.13;;;9.80;99.90;;;;;;5022558;28;20028;-91
2024/02/15 04:36:53;;;;;;;6.18;4.32;;;9.90;99.90;;;;;;5020717;28;20014;-90
2024/02/15 04:39:26;;;;;;;7.28;4.30;;;9.90;99.90;;;;;;5025888;28;20116;-92
2024/02/15 04:41:52;;;;;;;6.70;5.00;;;9.90;99.90;;;;;;5025398;28;20029;-91
2024/02/15 04:44:22;;;;;;;7.15;3.80;;;9.90;99.90;;;;;;5027306;28;20523;-89
2024/02/15 04:46:51;;;;;;;7.32;3.90;;;9.90;99.90;;;;;;5027568;28;20037;-92
2024/02/15 04:49:17;;;;;;;7.35;4.45;;;9.90;99.90;;;;;;5021092;28;20563;-92
2024/02/15 04:51:43;;;;;;;6.78;4.63;;;9.90;99.90;;;;;;5002382;28;20057;-90
2024/02/15 04:54:13;;;;;;;7.00;4.13;;;9.80;99.90;;;;;;5016337;28;20026;-91
2024/02/15 04:56:39;;;;;;;9.18;4.57;;;9.80;99.90;;;;;;5001390;28;20022;-92
2024/02/15 04:59:08;;;;;;;8.38;3.95;;;9.80;99.90;;;;;;5012483;28;20079;-89
2024/02/15 05:01:34;;;;;;;6.93;3.45;;;9.80;99.90;;;;;;5012359;28;20042;-91
2024/02/15 05:04:00;;;;;;;7.85;3.55;;;9.80;99.90;;;;;;5002021;28;20026;-89
2024/02/15 05:06:29;;;;;;;7.32;4.20;;;9.80;99.90;;;;;;5026517;28;20036;-90
2024/02/15 05:08:57;;;;;;;6.60;5.13;;;9.80;99.90;;;;;;5020028;28;20112;-90
2024/02/15 05:11:22;;;;;;;9.27;4.82;;;9.80;99.90;;;;;;5018776;28;20024;-93
2024/02/15 05:13:51;;;;;;;7.43;3.55;;;9.90;99.90;;;;;;5017467;28;20034;-89
2024/02/15 05:16:18;;;;;;;5.80;2.97;;;9.90;99.90;;;;;;5020458;28;20018;-90
2024/02/15 05:18:45;;;;;;;6.05;3.10;;;9.90;99.90;;;;;;5026826;28;20052;-90
2024/02/15 05:21:11;;;;;;;5.68;3.05;;;9.90;99.90;;;;;;5013313;28;20018;-91
2024/02/15 05:23:39;;;;;;;6.90;3.20;;;9.90;99.90;;;;;;5019175;28;20049;-91
2024/02/15 05:26:07;;;;;;;5.95;3.45;;;9.80;99.90;;;;;;5018629;28;20046;-90
2024/02/15 05:28:33;;;;;;;6.55;3.10;;;9.90;99.90;;;;;;5002679;28;20030;-89
2024/02/15 05:31:17;;;;;;;9.85;3.22;;;9.90;99.90;;;;;;5018171;28;20117;-91
2024/02/15 05:33:47;;;;;;;8.13;3.17;;;9.80;99.90;;;;;;5005452;28;20029;-89
2024/02/15 05:36:20;;;;;;;5.85;2.97;;;9.80;99.90;;;;;;5010519;28;20034;-90
2024/02/15 05:38:48;;;;;;;6.35;3.03;;;9.80;99.90;;;;;;5017480;28;20481;-91
2024/02/15 05:41:14;;;;;;;7.30;4.68;;;9.80;99.90;;;;;;5021485;28;20105;-90
2024/02/15 05:43:43;;;;;;;7.45;3.53;;;9.80;99.90;;;;;;5020639;28;20072;-93
2024/02/15 05:46:10;;;;;;;6.80;4.03;;;9.70;99.90;;;;;;5019126;28;20037;-90
2024/02/15 05:48:37;;;;;;;8.82;3.83;;;9.70;99.90;;;;;;5017582;28;20054;-91
2024/02/15 05:51:04;;;;;;;9.38;4.60;;;9.80;99.90;;;;;;5018518;28;20053;-91
2024/02/15 05:53:30;;;;;;;5.65;3.45;;;9.80;99.90;;;;;;5016779;28;20515;-91
2024/02/15 05:55:59;;;;;;;4.70;3.25;;;9.80;99.90;;;;;;5018151;28;20026;-90
2024/02/15 05:58:25;;;;;;;8.52;3.88;;;9.70;99.90;;;;;;5016845;28;20030;-88
2024/02/15 06:00:51;;;;;;;4.68;3.58;;;9.70;99.90;;;;;;5017790;28;20145;-90
2024/02/15 06:03:17;;;;;;;6.20;3.38;;;9.60;99.90;;;;;;5025348;28;20484;-90
2024/02/15 06:05:44;;;;;;;7.40;3.15;;;9.60;99.90;;;;;;5022988;28;20037;-91
2024/02/15 06:08:13;;;;;;;6.18;3.30;;;9.60;99.90;;;;;;5017567;28;20030;-91
2024/02/15 06:10:40;;;;;;;4.90;3.70;;;9.70;99.90;;;;;;5019889;28;20120;-91
2024/02/15 06:13:08;;;;;;;5.95;3.58;;;9.60;99.90;;;;;;5035486;28;20109;-89
2024/02/15 06:15:34;;;;;;;6.55;3.72;;;9.60;99.90;;;;;;5018698;28;20501;-91
2024/02/15 06:18:00;;;;;;;6.78;3.08;;;9.60;99.90;;;;;;5017446;28;20028;-90
2024/02/15 06:20:29;;;;;;;6.40;3.20;;;9.70;99.90;;;;;;4998877;28;20098;-90
2024/02/15 06:22:55;;;;;;;5.93;3.47;;;9.70;99.90;;;;;;5024353;28;20029;-90
2024/02/15 06:25:21;;;;;;;5.60;3.40;;;9.70;99.90;;;;;;5025709;28;20038;-91
2024/02/15 06:27:48;;;;;;;4.70;3.13;;;9.70;99.90;;;;;;4998914;28;20101;-90
2024/02/15 06:41:12;;;;;;;6.13;2.80;;;9.90;99.90;;;;;;5029746;28;20052;-90
2024/02/15 06:43:39;;;;;;;5.65;2.70;;;9.80;99.90;;;;;;5008481;28;20054;-91
2024/02/15 06:46:07;;;;;;;7.88;3.50;;;9.70;99.90;;;;;;4997664;28;20034;-88
2024/02/15 06:48:33;;;;;;;6.43;2.90;;;9.70;99.90;;;;;;4996577;28;20034;-91
2024/02/15 06:50:59;;;;;;;5.53;3.08;;;9.60;99.90;;;;;;4993259;28;20034;-91
2024/02/15 06:53:24;;;;;;;5.97;3.72;;;9.60;99.90;;;;;;5003089;28;20425;-88
2024/02/15 06:55:50;;;;;;;5.45;2.97;;;9.60;99.90;;;;;;5004477;28;20037;-90
2024/02/15 06:58:17;;;;;;;5.53;3.30;;;9.40;99.90;;;;;;4998578;28;20026;-91
2024/02/15 07:00:45;;;;;;;7.15;2.97;;;9.40;99.90;;;;;;4993856;28;20022;-90
2024/02/15 07:03:11;;;;;;;5.53;3.25;;;9.40;99.90;;;;;;4975759;28;20037;-91
2024/02/15 07:05:41;;;;;;;6.05;3.72;;;9.40;99.90;;;;;;4992020;28;20043;-88
2024/02/15 07:08:10;;;;;;;7.72;4.13;;;9.30;99.90;;;;;;5019172;28;20029;-91
2024/02/15 07:10:38;;;;;;;5.97;4.53;;;9.30;99.90;;;;;;4992748;28;20032;-90
2024/02/15 07:13:04;;;;;;;9.65;3.83;;;9.40;99.90;;;;;;4986265;28;20041;-91
2024/02/15 07:15:32;;;;;;;8.00;5.18;;;9.40;99.90;;;;;;4985850;28;20033;-90
2024/02/15 07:17:58;;;;;;;9.60;5.97;;;9.40;99.90;;;;;;4967243;28;20050;-90
2024/02/15 07:20:25;;;;;;;10.25;5.63;;;9.40;99.90;;;;;;4984725;28;20046;-89
2024/02/15 07:22:51;;;;;;;9.93;6.00;;;9.40;99.90;;;;;;4972522;28;20149;-91
2024/02/15 07:25:18;;;;;;;9.73;4.05;;;9.40;99.90;;;;;;4974005;28;20388;-91
2024/02/15 07:27:44;;;;;;;9.77;6.30;;;9.40;99.90;;;;;;4973987;28;20484;-90
2024/02/15 07:30:10;;;;;;;7.93;5.72;;;9.50;99.90;;;;;;4972316;28;20034;-90
2024/02/15 07:32:36;;;;;;;7.47;5.10;;;9.40;99.90;;;;;;4971718;28;20456;-91
2024/02/15 07:35:02;;;;;;;8.27;5.03;;;9.40;99.90;;;;;;5011733;28;20030;-90
2024/02/15 07:37:29;;;;;;;10.68;6.00;;;9.40;99.90;;;;;;4999859;28;20116;-90
2024/02/15 07:39:55;;;;;;;10.38;5.82;;;9.40;99.90;;;;;;5003370;28;20565;-90
2024/02/15 07:42:21;;;;;;;7.25;4.03;;;9.40;99.90;;;;;;5002317;28;20050;-90
2024/02/15 07:44:46;;;;;;;9.65;4.35;;;9.40;99.90;;;;;;4997100;28;20303;-89
2024/02/15 07:47:12;;;;;;;8.35;4.50;;;9.50;99.90;;;;;;5002077;28;20119;-91
2024/02/15 07:49:38;;;;;;;10.52;4.13;;;9.50;99.90;;;;;;5003472;28;20061;-89
2024/02/15 07:52:04;;;;;;;6.82;4.18;;;9.50;99.90;;;;;;5003677;28;20034;-90
2024/02/15 07:54:30;;;;;;;4.25;2.75;;;9.50;99.90;;;;;;5002453;28;20061;-89
2024/02/15 07:56:58;;;;;;;4.93;4.43;;;9.50;99.90;;;;;;5007220;28;20061;-91
2024/02/15 07:59:23;;;;;;;10.15;3.17;;;9.40;99.90;;;;;;5003916;28;20032;-91
2024/02/15 08:01:52;;;;;;;5.93;3.10;;;9.50;99.90;;;;;;5005141;28;20038;-89
2024/02/15 08:04:18;;;;;;;3.95;2.92;;;9.40;99.90;;;;;;5004768;28;20117;-90
2024/02/15 08:06:44;;;;;;;4.88;2.95;;;9.50;99.90;;;;;;5006324;28;20590;-90
2024/02/15 08:09:17;;;;;;;8.13;3.35;;;9.50;99.90;;;;;;5003912;28;20038;-90
2024/02/15 08:11:43;;;;;;;5.18;2.65;;;9.50;99.90;;;;;;5004460;28;20416;-91
2024/02/15 08:14:10;;;;;;;6.82;3.33;;;9.50;99.90;;;;;;5001104;28;20125;-91
2024/02/15 08:16:37;;;;;;;5.45;3.35;;;9.60;99.90;;;;;;5001645;28;20036;-90
2024/02/15 08:19:05;;;;;;;8.02;3.53;;;9.60;99.90;;;;;;5004089;28;20030;-90
2024/02/15 08:21:32;;;;;;;;;;;9.60;99.90;;;;;;5004993;28;20018;-91
2024/02/15 08:24:00;;;;;;;6.35;2.85;;;9.70;99.90;;;;;;5001746;28;19913;-90
2024/02/15 08:26:26;;;;;;;5.68;3.03;;;9.70;99.90;;;;;;5004724;28;20508;-93
2024/02/15 08:28:52;;;;;;;3.70;2.53;;;9.80;99.90;;;;;;5007198;28;20558;-90
2024/02/15 08:31:19;;;;;;;5.68;2.97;;;9.80;99.90;;;;;;5004273;28;20514;-89
2024/02/15 08:33:45;;;;;;;4.32;2.78;;;9.80;99.90;;;;;;4999935;28;20216;-91
2024/02/15 08:36:13;;;;;;;4.50;3.47;;;9.90;99.90;;;;;;5004489;28;20121;-90
2024/02/15 08:38:41;;;;;;;6.47;3.17;;;10.00;99.90;;;;;;5004424;28;20033;-89
2024/02/15 08:41:07;;;;;;;3.58;2.28;;;10.10;99.90;;;;;;5000317;28;20044;-88
2024/02/15 08:43:34;;;;;;;6.32;2.78;;;10.20;99.90;;;;;;5000149;28;20083;-90
2024/02/15 08:45:59;;;;;;;4.65;2.50;;;10.30;99.90;;;;;;5003999;28;20026;-90
2024/02/15 08:48:25;;;;;;;6.97;3.63;;;10.40;99.90;;;;;;5001683;28;20041;-89
2024/02/15 08:50:54;;;;;;;4.50;2.80;;;10.40;99.90;;;;;;5002152;28;20157;-89
2024/02/15 08:53:19;;;;;;;4.38;2.42;;;10.50;99.90;;;;;;5005716;28;20677;-88
2024/02/15 08:55:45;;;;;;;4.30;2.78;;;10.60;99.90;;;;;;5003718;28;20054;-91
2024/02/15 08:58:11;;;;;;;4.38;3.38;;;10.60;99.90;;;;;;4984984;28;20090;-88
2024/02/15 09:00:44;;;;;;;6.43;2.78;;;10.80;99.90;;;;;;5004341;28;20480;-88
2024/02/15 09:03:13;;;;;;;5.78;3.22;;;10.90;99.90;;;;;;5001630;28;20097;-88
2024/02/15 09:05:42;;;;;;;7.13;4.50;;;11.00;99.90;;;;;;5000966;28;20105;-89
2024/02/15 09:08:08;;;;;;;4.47;3.10;;;11.00;99.90;;;;;;5004246;28;20037;-89
2024/02/15 09:10:36;;;;;;;4.72;2.97;;;11.10;99.90;;;;;;5002678;28;20018;-89
2024/02/15 09:13:02;;;;;;;5.57;2.92;;;11.20;99.90;;;;;;4998197;28;20025;-88
2024/02/15 09:15:30;;;;;;;7.07;2.55;;;11.20;99.90;;;;;;5002260;28;20026;-88
2024/02/15 09:17:57;;;;;;;5.60;2.55;;;11.30;99.90;;;;;;5007818;28;20504;-87
2024/02/15 09:20:27;;;;;;;6.38;2.97;;;11.40;99.90;;;;;;5004489;28;20049;-90
2024/02/15 09:22:54;;;;;;;5.95;2.90;;;11.50;99.90;;;;;;4979901;28;20505;-89
2024/02/15 09:25:23;;;;;;;15.73;3.80;;;11.60;99.90;;;;;;5002622;28;20030;-89
2024/02/15 09:27:49;;;;;;;6.78;2.65;;;11.70;99.00;;;;;;5002006;28;20034;-89
2024/02/15 09:30:18;;;;;;;5.13;2.58;;;11.80;99.60;;;;;;5001983;28;20492;-89
2024/02/15 09:32:45;;;;;;;8.02;4.20;;;11.90;98.10;;;;;;4999999;28;20310;-89
2024/02/15 09:35:11;;;;;;;10.40;4.05;;;12.10;97.30;;;;;;5003238;28;20021;-88
2024/02/15 09:37:52;;;;;;;4.88;2.67;;;12.10;96.20;;;;;;5002530;28;20140;-88
2024/02/15 09:40:19;;;;;;;3.90;2.55;;;12.20;95.00;;;;;;5002123;28;20040;-89
2024/02/15 09:42:45;;;;;;;5.57;2.15;;;12.40;94.40;;;;;;5000129;28;20571;-89
2024/02/15 09:45:14;;;;;;;3.53;2.58;;;12.50;93.10;;;;;;5002843;28;20112;-87
2024/02/15 09:47:41;;;;;;;5.43;2.00;;;12.70;91.50;;;;;;5002300;28;20038;-89
2024/02/15 09:50:15;;;;;;;3.55;2.28;;;12.90;90.70;;;;;;4999876;28;20685;-88
2024/02/15 09:52:56;;;;;;;5.22;2.38;;;13.00;87.20;;;;;;5002098;28;20038;-89
2024/02/15 09:55:23;;;;;;;5.40;1.63;;;13.20;87.80;;;;;;5005033;28;20096;-90
2024/02/15 09:57:49;;;;;;;4.63;2.67;;;13.40;87.60;;;;;;4985628;28;20038;-91
2024/02/15 10:00:16;;;;;;;6.57;2.67;;;13.50;86.50;;;;;;5001282;28;20030;-87
2024/02/15 10:02:52;;;;;;;5.57;2.78;;;13.60;86.80;;;;;;5002582;28;20518;-89
2024/02/15 10:05:19;;;;;;;4.25;2.15;;;13.80;85.10;;;;;;5003147;28;20025;-88
2024/02/15 10:07:45;;;;;;;4.80;2.72;;;14.00;84.30;;;;;;5001125;28;20091;-89
2024/02/15 10:10:19;;;;;;;4.65;2.28;;;14.10;83.60;;;;;;4984941;28;20048;-90
2024/02/15 10:12:48;;;;;;;6.82;2.13;;;14.20;84.00;;;;;;5001753;28;20120;-88
2024/02/15 10:15:27;;;;;;;8.10;3.58;;;14.30;83.20;;;;;;5004231;28;20921;-89
2024/02/15 10:17:56;;;;;;;5.88;2.33;;;14.40;82.40;;;;;;5004053;28;20037;-88
2024/02/15 10:20:25;;;;;;;3.28;2.03;;;14.50;82.10;;;;;;5000283;28;20033;-89
2024/02/15 10:22:58;;;;;;;8.43;2.80;;;14.50;79.90;;;;;;5001723;28;20137;-88
2024/02/15 10:25:27;;;;;;;15.77;3.30;;;14.50;80.00;;;;;;5002760;28;20112;-88
2024/02/15 10:28:02;;;;;;;3.60;1.80;;;14.60;79.20;;;;;;5002086;28;21587;-90
2024/02/15 10:30:29;;;;;;;6.78;2.33;;;14.80;79.80;;;;;;5001009;28;20022;-89
2024/02/15 10:32:56;;;;;;;5.90;2.53;;;14.90;79.20;;;;;;5002495;28;20034;-88
2024/02/15 10:35:23;;;;;;;3.53;2.00;;;15.00;74.90;;;;;;5002231;28;20022;-87
2024/02/15 10:37:52;;;;;;;4.03;1.38;;;15.20;75.70;;;;;;5001869;28;20040;-88
2024/02/15 10:40:19;;;;;;;7.13;2.05;;;15.30;75.20;;;;;;5002965;28;20029;-88
2024/02/15 10:42:51;;;;;;;3.25;1.45;;;15.50;73.60;;;;;;5002243;28;20069;-87
2024/02/15 10:45:20;;;;;;;3.85;2.00;;;15.60;73.60;;;;;;5001231;28;20555;-88
2024/02/15 10:47:49;;;;;;;6.40;1.50;;;15.60;68.90;;;;;;5000772;28;20061;-87
2024/02/15 10:50:16;;;;;;;5.18;1.85;;;15.60;71.50;;;;;;5002268;28;20034;-88
2024/02/15 10:52:58;;;;;;;2.97;1.58;;;15.80;71.60;;;;;;5001302;28;20064;-89
2024/02/15 10:55:56;;;;;;;4.18;1.58;;;15.80;71.20;;;;;;4984067;28;21309;-87
2024/02/15 10:58:25;;;;;;;4.03;1.42;;;15.80;70.10;;;;;;4983025;28;20117;-88
2024/02/15 11:00:53;;;;;;;5.60;1.80;;;15.90;70.50;;;;;;5001184;28;20030;-87
2024/02/15 11:03:30;;;;;;;13.13;1.65;;;15.90;69.40;;;;;;4998253;28;20061;-89
2024/02/15 11:06:00;;;;;;;3.65;1.23;;;15.90;69.20;;;;;;4984706;28;20101;-89
2024/02/15 11:08:27;;;;;;;4.50;1.10;;;16.00;69.50;;;;;;5001719;28;20052;-87
2024/02/15 11:10:55;;;;;;;3.78;1.38;;;16.10;68.40;;;;;;4998780;28;20029;-88
2024/02/15 11:13:20;;;;;;;6.50;2.58;;;16.10;68.50;;;;;;4999594;28;20030;-88
2024/02/15 11:15:49;;;;;;;5.47;1.67;;;16.10;68.00;;;;;;5002699;28;20030;-89
2024/02/15 11:18:51;;;;;;;5.95;2.75;;;16.10;67.80;;;;;;4999050;28;20121;-89
2024/02/15 11:21:58;;;;;;;3.25;1.65;;;16.10;67.40;;;;;;5000025;28;20017;-88
2024/02/15 11:24:38;;;;;;;5.00;2.17;;;16.10;67.20;;;;;;4998618;28;20053;-89
2024/02/15 11:27:05;;;;;;;;;;;16.10;66.60;;;;;;4999695;28;20037;-87
2024/02/15 11:29:53;;;;;;;6.82;1.58;;;16.00;66.60;;;;;;5001278;28;20411;-90
2024/02/15 11:32:47;;;;;;;4.47;0.98;;;15.90;66.80;;;;;;5002967;28;20037;-88
2024/02/15 11:35:22;;;;;;;4.13;1.35;;;15.90;66.70;;;;;;5002259;28;20563;-90
2024/02/15 11:37:48;;;;;;;3.45;2.05;;;16.20;65.30;;;;;;5003246;28;20076;-88
2024/02/15 11:40:23;;;;;;;6.70;1.45;;;16.20;67.10;;;;;;5002036;28;20034;-89
2024/02/15 11:42:50;;;;;;;7.30;1.95;;;16.30;65.80;;;;;;4998438;28;20037;-89
2024/02/15 11:45:19;;;;;;;5.40;1.48;;;16.40;64.90;;;;;;5001467;28;20559;-88
2024/02/15 11:47:55;;;;;;;12.68;1.95;;;16.40;64.90;;;;;;5007282;28;20060;-88
2024/02/15 11:50:22;;;;;;;8.85;1.70;;;16.60;65.00;;;;;;5006836;28;20025;-88
2024/02/15 11:52:50;;;;;;;3.22;2.10;;;16.70;63.70;;;;;;4984849;28;20108;-89
2024/02/15 11:55:19;;;;;;;;;;;16.90;62.50;;;;;;5002155;28;20033;-88
2024/02/15 11:58:02;;;;;;;5.68;1.80;;;17.20;61.30;;;;;;5002623;28;19906;-88
2024/02/15 12:19:57;;;;;;;5.53;2.20;;;17.70;56.70;;;;;;5001828;28;20076;-89
2024/02/15 12:22:26;;;;;;;;;;;17.90;56.50;;;;;;5003839;28;20484;-89
2024/02/15 12:25:00;;;;;;;4.78;1.63;;;17.90;57.10;;;;;;4983529;28;19913;-89
2024/02/15 12:27:27;;;;;;;4.47;1.33;;;17.60;57.20;;;;;;5001061;28;20026;-89
2024/02/15 12:30:04;;;;;;;4.68;1.30;;;17.30;59.10;;;;;;5017756;28;20034;-90
2024/02/15 12:32:31;;;;;;;3.45;2.08;;;17.40;58.40;;;;;;5025455;28;20018;-89
2024/02/15 12:35:16;;;;;;;3.35;2.03;;;17.40;58.40;;;;;;5010521;28;20022;-91
2024/02/15 12:37:45;;;;;;;3.80;1.48;;;17.50;57.80;;;;;;5031679;28;20037;-89
2024/02/15 12:40:17;;;;;;;3.28;1.35;;;17.50;56.40;;;;;;5015003;28;20129;-89
2024/02/15 12:42:49;;;;;;;3.45;2.28;;;17.60;55.10;;;;;;4993872;28;20034;-89
2024/02/15 12:45:24;;;;;;;3.15;1.33;;;17.60;55.30;;;;;;5013457;28;20029;-89
2024/02/15 12:47:51;;;;;;;3.30;1.65;;;17.60;54.80;;;;;;5007161;28;20037;-89
2024/02/15 12:50:22;;;;;;;3.15;1.23;;;17.30;55.90;;;;;;5006958;28;20563;-89
2024/02/15 12:52:49;;;;;;;2.55;2.10;;;17.50;56.90;;;;;;4986956;28;20042;-88
2024/02/15 12:55:14;;;;;;;3.13;1.27;;;17.30;56.70;;;;;;5006596;28;20216;-90
2024/02/15 12:57:51;;;;;;;3.60;1.52;;;17.20;57.50;;;;;;5004834;28;20108;-88
2024/02/15 13:00:35;;;;;;;5.40;2.08;;;17.20;57.00;;;;;;5006363;28;20036;-89
2024/02/15 13:03:03;;;;;;;4.10;1.40;;;17.30;57.90;;;;;;5003354;28;20129;-89
2024/02/15 13:05:30;;;;;;;2.67;1.05;;;17.30;57.40;;;;;;5006419;28;20033;-89
2024/02/15 13:07:57;;;;;;;;;;;17.40;56.50;;;;;;5005526;28;20056;-89
2024/02/15 13:10:24;;;;;;;5.47;1.15;;;17.30;56.50;;;;;;5004913;28;19913;-88
2024/02/15 13:12:52;;;;;;;5.82;2.08;;;17.40;56.90;;;;;;5005629;28;20030;-90
2024/02/15 13:15:21;;;;;;;4.05;1.10;;;17.40;55.90;;;;;;5005281;28;20026;-90
2024/02/15 13:17:53;;;;;;;2.53;1.52;;;17.60;54.90;;;;;;4985521;28;20109;-89
2024/02/15 13:20:32;;;;;;;4.57;1.10;;;17.60;55.30;;;;;;5006462;28;20034;-88
2024/02/15 13:23:08;;;;;;;5.05;0.93;;;17.70;55.80;;;;;;5003722;28;20022;-89
2024/02/15 13:25:34;;;;;;;2.45;1.42;;;17.80;54.20;;;;;;5003994;28;20022;-89
2024/02/15 13:28:02;;;;;;;3.05;0.93;;;17.80;54.70;;;;;;4992539;28;20619;-89